Terminal Aerodrome Forecast
Issued by NWS

Home | Current Version | Previous Version | Graphics & Text | Print | Product List | Glossary On
Versions: 1 2 3 4 5 6 7 8 9 10 11 12 13 14 15 16 17 18 19 20 21 22 23 24 25 26 27 28 29 30 31 32 33 34 35 36 37 38 39 40 41 42 43
000
FTUS43 KGRB 071002 AAA
TAFRHI
TAF AMD
KRHI 071002Z 0710/0806 20011G16KT 6SM BR SCT010 OVC025
      TEMPO 0710/0714 5SM -SN OVC007
     FM071400 23013G17KT 6SM BR BKN012 OVC100
      TEMPO 0714/0718 5SM -RASN OVC012
     FM080000 26007KT P6SM SCT025 BKN040 PROB30 0800/0806 5SM -SN
      BKN025=

USA.gov is the U.S. government's official web portal to all federal, state and local government web resources and services.